Time;durP1;ratioP1;P1;durP2;ratioP2;P2;SDS_P1;SDS_P2;PMS_P1;PMS_P2;Temp;Humidity;BMP_temperature;BMP_pressure;BME280_temperature;BME280_humidity;BME280_pressure;Samples;Min_cycle;Max_cycle;Signal;HPM_P1;HPM_P2
2022/04/29 00:01:23;;;;;;;8.00;2.60;;;7.40;99.90;;;;;;5048451;28;20152;-76
2022/04/29 00:03:49;;;;;;;14.18;2.97;;;7.40;99.90;;;;;;5031049;28;20061;-76
2022/04/29 00:06:15;;;;;;;7.88;3.05;;;7.30;99.90;;;;;;5045606;28;20403;-77
2022/04/29 00:08:40;;;;;;;9.38;2.92;;;7.40;99.90;;;;;;5069824;28;20037;-76
2022/04/29 00:11:06;;;;;;;10.15;3.47;;;7.30;99.90;;;;;;5040472;28;20477;-76
2022/04/29 00:13:32;;;;;;;10.15;2.75;;;7.30;99.90;;;;;;5051136;28;20403;-76
2022/04/29 00:15:58;;;;;;;7.38;2.78;;;7.30;99.90;;;;;;5063062;28;20076;-76
2022/04/29 00:18:24;;;;;;;6.90;2.95;;;7.10;99.90;;;;;;5052700;28;20124;-76
2022/04/29 00:20:50;;;;;;;9.05;2.97;;;7.00;99.90;;;;;;5039441;28;20045;-76
2022/04/29 00:23:16;;;;;;;10.32;2.95;;;7.00;99.90;;;;;;5038516;28;20194;-76
2022/04/29 00:25:42;;;;;;;11.18;3.60;;;7.00;99.90;;;;;;5050006;28;20136;-76
2022/04/29 00:28:07;;;;;;;7.65;3.15;;;7.00;99.90;;;;;;5046842;28;20523;-76
2022/04/29 00:30:34;;;;;;;8.88;2.88;;;6.90;99.90;;;;;;5050631;28;20048;-77
2022/04/29 00:32:59;;;;;;;12.88;3.30;;;6.90;99.90;;;;;;5058526;28;20071;-76
2022/04/29 00:35:26;;;;;;;9.10;2.97;;;6.90;99.90;;;;;;5028430;28;20480;-76
2022/04/29 00:37:56;;;;;;;8.70;2.60;;;6.90;99.90;;;;;;5035564;28;20136;-76
2022/04/29 00:40:24;;;;;;;7.32;2.97;;;6.90;99.90;;;;;;5046198;28;20173;-76
2022/04/29 00:42:50;;;;;;;5.97;2.85;;;6.90;99.90;;;;;;5035978;28;20075;-76
2022/04/29 00:45:18;;;;;;;9.48;3.70;;;6.90;99.90;;;;;;5039186;28;20051;-77
2022/04/29 00:47:45;;;;;;;9.00;3.28;;;6.80;99.90;;;;;;5062530;28;20044;-77
2022/04/29 00:50:12;;;;;;;9.70;3.42;;;6.80;99.90;;;;;;5071046;28;20079;-76
2022/04/29 00:52:50;;;;;;;10.45;3.10;;;6.80;99.90;;;;;;5067063;28;20075;-76
2022/04/29 00:55:17;;;;;;;8.70;3.22;;;6.80;99.90;;;;;;5055173;28;20052;-76
2022/04/29 00:58:20;;;;;;;10.57;3.55;;;6.70;99.90;;;;;;5031496;28;20041;-76
2022/04/29 01:00:46;;;;;;;8.02;3.33;;;6.70;99.90;;;;;;5052548;28;20123;-76
2022/04/29 01:03:14;;;;;;;9.85;3.13;;;6.60;99.90;;;;;;5036530;28;20053;-76
2022/04/29 01:05:40;;;;;;;6.75;3.03;;;6.80;99.90;;;;;;5031962;28;20057;-76
2022/04/29 01:08:07;;;;;;;5.57;2.85;;;6.80;99.90;;;;;;5050128;28;20185;-77
2022/04/29 01:10:33;;;;;;;11.43;3.40;;;6.80;99.90;;;;;;5033578;28;20064;-77
2022/04/29 01:13:00;;;;;;;10.25;3.88;;;6.80;99.90;;;;;;5043529;28;20084;-77
2022/04/29 01:15:27;;;;;;;9.55;4.05;;;6.80;99.90;;;;;;5051203;28;20478;-75
2022/04/29 01:18:03;;;;;;;7.32;3.60;;;6.80;99.90;;;;;;5043445;28;20049;-75
2022/04/29 01:20:31;;;;;;;9.15;3.50;;;6.80;99.90;;;;;;5042432;28;20037;-75
2022/04/29 01:22:57;;;;;;;8.43;4.20;;;6.80;99.90;;;;;;5044430;28;20044;-75
2022/04/29 01:25:23;;;;;;;9.32;3.70;;;6.90;99.90;;;;;;5050660;28;20055;-75
2022/04/29 01:27:49;;;;;;;10.05;4.85;;;6.90;99.90;;;;;;5019533;28;20566;-75
2022/04/29 01:30:18;;;;;;;8.77;3.88;;;6.90;99.90;;;;;;5032258;28;20366;-75
2022/04/29 01:32:45;;;;;;;10.38;5.25;;;6.90;99.90;;;;;;5049414;28;20371;-75
2022/04/29 01:35:12;;;;;;;11.27;4.60;;;7.00;99.90;;;;;;5032297;28;20055;-75
2022/04/29 01:37:38;;;;;;;10.65;4.47;;;6.90;99.90;;;;;;5033198;28;20044;-75
2022/04/29 01:40:06;;;;;;;11.43;4.60;;;6.90;99.90;;;;;;5071171;28;20082;-75
2022/04/29 01:42:32;;;;;;;14.85;4.90;;;6.90;99.90;;;;;;5039757;28;20388;-75
2022/04/29 01:44:58;;;;;;;13.80;5.10;;;6.90;99.90;;;;;;5024297;28;20381;-75
2022/04/29 01:47:23;;;;;;;8.10;4.28;;;6.90;99.90;;;;;;5012573;28;20051;-75
2022/04/29 01:49:50;;;;;;;17.65;5.07;;;6.80;99.90;;;;;;5034765;28;20041;-75
2022/04/29 01:52:15;;;;;;;10.77;4.60;;;6.80;99.90;;;;;;5044103;28;20484;-75
2022/04/29 01:54:41;;;;;;;8.25;4.40;;;6.80;99.90;;;;;;5038950;28;20044;-74
2022/04/29 01:57:07;;;;;;;7.32;4.32;;;6.80;99.90;;;;;;5022432;28;20056;-75
2022/04/29 01:59:34;;;;;;;7.22;4.55;;;6.70;99.90;;;;;;5020331;28;20493;-75
2022/04/29 02:02:00;;;;;;;11.05;5.00;;;6.70;99.90;;;;;;5016390;28;20056;-75
2022/04/29 02:04:26;;;;;;;10.50;4.47;;;6.70;99.90;;;;;;5043198;28;20056;-74
2022/04/29 02:06:52;;;;;;;10.27;4.88;;;6.70;99.90;;;;;;5026511;28;20045;-75
2022/04/29 02:09:18;;;;;;;7.65;4.30;;;6.70;99.90;;;;;;5030875;28;20136;-75
2022/04/29 02:12:03;;;;;;;7.53;5.05;;;6.70;99.90;;;;;;5047553;28;20123;-75
2022/04/29 02:14:30;;;;;;;13.27;5.55;;;6.70;99.90;;;;;;5041152;28;20038;-75
2022/04/29 02:16:57;;;;;;;13.00;5.40;;;6.80;99.90;;;;;;5031986;28;20093;-75
2022/04/29 02:19:24;;;;;;;10.57;5.20;;;6.80;99.90;;;;;;5028467;28;20067;-75
2022/04/29 02:21:49;;;;;;;9.73;5.35;;;6.80;99.90;;;;;;5031292;28;20867;-75
2022/04/29 02:24:15;;;;;;;8.02;4.65;;;6.80;99.90;;;;;;5048184;28;20076;-75
2022/04/29 02:26:41;;;;;;;11.43;4.10;;;6.80;99.90;;;;;;5031017;28;20083;-75
2022/04/29 02:29:07;;;;;;;11.07;4.68;;;6.80;99.90;;;;;;5029336;28;20045;-75
2022/04/29 02:31:33;;;;;;;12.00;4.80;;;6.80;99.90;;;;;;5034368;28;20048;-75
2022/04/29 02:33:59;;;;;;;7.22;4.70;;;6.80;99.90;;;;;;5029652;28;20119;-75
2022/04/29 02:36:24;;;;;;;10.45;5.10;;;6.80;99.90;;;;;;5038011;28;20577;-74
2022/04/29 02:38:50;;;;;;;10.88;4.25;;;6.80;99.90;;;;;;5031323;28;20163;-75
2022/04/29 02:41:16;;;;;;;9.25;5.22;;;6.80;99.90;;;;;;5032732;28;20041;-75
2022/04/29 02:43:43;;;;;;;13.25;4.80;;;6.80;99.90;;;;;;5022786;28;20377;-76
2022/04/29 02:46:09;;;;;;;12.32;5.30;;;6.90;99.90;;;;;;5033864;28;20068;-75
2022/04/29 02:48:34;;;;;;;9.32;4.70;;;6.90;99.90;;;;;;5029123;28;20121;-75
2022/04/29 02:51:00;;;;;;;11.13;5.25;;;6.90;99.90;;;;;;5030145;28;20581;-75
2022/04/29 02:53:25;;;;;;;7.00;4.55;;;6.90;99.90;;;;;;5040048;28;20365;-76
2022/04/29 02:55:51;;;;;;;13.15;5.10;;;6.90;99.90;;;;;;5032983;28;20107;-75
2022/04/29 02:58:17;;;;;;;11.95;4.82;;;6.90;99.90;;;;;;5049640;28;20431;-74
2022/04/29 03:00:42;;;;;;;9.55;5.75;;;6.90;99.90;;;;;;5022344;28;20045;-75
2022/04/29 03:03:08;;;;;;;14.75;4.85;;;7.00;99.90;;;;;;5043126;28;20525;-75
2022/04/29 03:05:34;;;;;;;14.30;5.32;;;7.00;99.90;;;;;;5031277;28;20044;-75
2022/04/29 03:07:59;;;;;;;12.00;4.97;;;7.00;99.90;;;;;;5031394;28;20183;-74
2022/04/29 03:10:25;;;;;;;11.27;5.53;;;7.00;99.90;;;;;;5048615;28;20494;-75
2022/04/29 03:12:51;;;;;;;11.05;5.05;;;6.90;99.90;;;;;;5039201;28;20059;-75
2022/04/29 03:15:18;;;;;;;11.20;4.80;;;6.90;99.90;;;;;;5068573;28;20037;-75
2022/04/29 03:20:37;;;;;;;9.43;3.72;;;6.80;99.90;;;;;;5031242;28;20136;-75
2022/04/29 03:23:03;;;;;;;6.75;4.00;;;6.90;99.90;;;;;;5038321;28;20144;-78
2022/04/29 03:25:29;;;;;;;11.43;4.22;;;6.90;99.90;;;;;;5030326;28;20500;-75
2022/04/29 03:27:54;;;;;;;9.55;4.03;;;6.90;99.90;;;;;;5029789;28;20060;-75
2022/04/29 03:30:20;;;;;;;7.60;3.67;;;7.00;99.90;;;;;;5044346;28;20166;-75
2022/04/29 03:32:58;;;;;;;11.23;4.07;;;7.00;99.90;;;;;;5066014;28;20123;-75
2022/04/29 03:35:24;;;;;;;10.93;4.85;;;7.00;99.90;;;;;;5050706;28;20456;-75
2022/04/29 03:37:52;;;;;;;6.93;4.22;;;7.00;99.90;;;;;;5049188;28;20048;-75
2022/04/29 03:40:21;;;;;;;10.93;4.65;;;7.00;99.90;;;;;;5059096;28;20044;-75
2022/04/29 03:42:55;;;;;;;6.65;4.40;;;7.00;99.90;;;;;;5058821;28;20527;-75
2022/04/29 03:45:23;;;;;;;10.65;4.20;;;7.00;99.90;;;;;;5031665;28;20459;-76
2022/04/29 03:47:49;;;;;;;8.00;4.22;;;7.10;99.90;;;;;;5059712;28;20041;-76
2022/04/29 03:50:15;;;;;;;7.47;3.90;;;7.10;99.90;;;;;;5051592;28;20087;-75
2022/04/29 03:52:49;;;;;;;16.67;5.28;;;7.10;99.90;;;;;;5048766;28;20045;-75
2022/04/29 03:55:17;;;;;;;7.70;4.43;;;7.20;99.90;;;;;;5048765;28;20089;-75
2022/04/29 03:57:42;;;;;;;7.50;4.25;;;7.10;99.90;;;;;;5048183;28;20158;-75
2022/04/29 04:00:09;;;;;;;11.38;4.55;;;7.10;99.90;;;;;;5036902;28;20132;-75
2022/04/29 04:02:35;;;;;;;11.25;4.45;;;7.20;99.90;;;;;;5034085;28;20056;-75
2022/04/29 04:05:01;;;;;;;7.32;4.38;;;7.20;99.90;;;;;;5049626;28;20048;-75
2022/04/29 04:07:26;;;;;;;10.05;4.45;;;7.20;99.90;;;;;;5064722;28;20098;-75
2022/04/29 04:09:52;;;;;;;9.70;4.30;;;7.10;99.90;;;;;;5049200;28;20048;-76
2022/04/29 04:12:18;;;;;;;10.82;4.38;;;7.10;99.90;;;;;;5053966;28;20040;-75
2022/04/29 04:14:44;;;;;;;10.20;4.53;;;7.10;99.90;;;;;;5054909;28;20041;-75
2022/04/29 04:17:09;;;;;;;8.65;4.85;;;7.10;99.90;;;;;;5057653;28;20114;-75
2022/04/29 04:19:35;;;;;;;9.60;4.72;;;7.20;99.90;;;;;;5064366;28;20044;-75
2022/04/29 04:22:02;;;;;;;9.00;4.22;;;7.20;99.90;;;;;;5049810;28;20076;-75
2022/04/29 04:24:28;;;;;;;8.50;4.10;;;7.20;99.90;;;;;;5072333;28;20092;-75
2022/04/29 04:26:54;;;;;;;7.90;4.70;;;7.30;99.90;;;;;;5065327;28;20127;-75
2022/04/29 04:29:19;;;;;;;9.52;4.40;;;7.30;99.90;;;;;;5072831;28;20139;-75
2022/04/29 04:31:45;;;;;;;6.70;3.95;;;7.30;99.90;;;;;;5069052;28;20068;-78
2022/04/29 04:36:55;;;;;;;7.68;5.03;;;7.30;99.90;;;;;;5045147;28;20085;-75
2022/04/29 04:39:21;;;;;;;9.63;4.80;;;7.30;99.90;;;;;;5054967;28;20066;-76
2022/04/29 04:41:48;;;;;;;6.97;4.25;;;7.30;99.90;;;;;;5050857;28;20072;-76
2022/04/29 04:44:13;;;;;;;10.38;4.90;;;7.20;99.90;;;;;;5037501;28;20055;-75
2022/04/29 04:46:40;;;;;;;11.40;5.15;;;7.30;99.90;;;;;;5055049;28;20131;-75
2022/04/29 04:49:06;;;;;;;12.07;5.00;;;7.30;99.90;;;;;;5069276;28;20107;-76
2022/04/29 04:51:31;;;;;;;8.45;4.82;;;7.30;99.90;;;;;;5034273;28;20121;-76
2022/04/29 04:53:57;;;;;;;13.27;5.10;;;7.30;99.90;;;;;;5068996;28;20084;-76
2022/04/29 04:56:23;;;;;;;12.00;4.57;;;7.30;99.90;;;;;;5053326;28;20044;-76
2022/04/29 04:58:48;;;;;;;8.98;4.85;;;7.30;99.90;;;;;;5036404;28;20044;-77
2022/04/29 05:01:14;;;;;;;9.65;4.72;;;7.30;99.90;;;;;;5067867;28;20500;-76
2022/04/29 05:03:40;;;;;;;7.75;5.13;;;7.30;99.90;;;;;;5069318;28;20423;-76
2022/04/29 05:06:05;;;;;;;10.30;5.00;;;7.30;99.90;;;;;;5060330;28;20060;-74
2022/04/29 05:08:31;;;;;;;8.50;5.18;;;7.40;99.90;;;;;;5037987;28;20063;-76
2022/04/29 05:10:56;;;;;;;8.88;5.40;;;7.50;99.90;;;;;;5049383;28;20484;-76
2022/04/29 05:13:22;;;;;;;10.65;5.55;;;7.50;99.90;;;;;;5049710;28;20041;-76
2022/04/29 05:15:48;;;;;;;9.32;5.38;;;7.50;99.90;;;;;;5045725;28;20373;-76
2022/04/29 05:18:15;;;;;;;7.75;4.35;;;7.50;99.90;;;;;;5035299;28;20069;-77
2022/04/29 05:20:43;;;;;;;8.75;4.88;;;7.60;99.90;;;;;;5043753;28;20116;-76
2022/04/29 05:23:08;;;;;;;11.70;4.32;;;7.70;99.90;;;;;;5050956;28;20148;-76
2022/04/29 05:25:35;;;;;;;11.30;4.00;;;7.80;99.90;;;;;;5037494;28;20137;-75
2022/04/29 05:28:01;;;;;;;7.60;4.20;;;7.80;99.90;;;;;;5032192;28;20063;-77
2022/04/29 05:30:31;;;;;;;9.82;4.45;;;8.00;99.90;;;;;;5047136;28;20045;-76
2022/04/29 05:32:57;;;;;;;12.43;4.60;;;8.10;99.90;;;;;;5032506;28;20374;-76
2022/04/29 05:35:23;;;;;;;20.63;4.95;;;8.10;99.90;;;;;;5035711;28;20112;-76
2022/04/29 05:37:50;;;;;;;15.35;4.65;;;8.20;99.90;;;;;;5037884;28;20076;-77
2022/04/29 05:43:01;;;;;;;9.00;4.20;;;8.30;99.90;;;;;;5035451;28;20496;-76
2022/04/29 05:45:27;;;;;;;7.97;4.20;;;8.30;99.90;;;;;;5036369;28;20041;-76
2022/04/29 05:47:52;;;;;;;7.90;4.25;;;8.40;99.90;;;;;;5040290;28;20087;-75
2022/04/29 05:50:18;;;;;;;10.18;4.10;;;8.30;99.90;;;;;;5045563;28;20051;-74
2022/04/29 05:52:43;;;;;;;10.35;4.53;;;8.40;99.90;;;;;;5043353;28;20108;-73
2022/04/29 05:55:09;;;;;;;7.97;4.20;;;8.50;99.90;;;;;;5036325;28;20041;-74
2022/04/29 05:57:35;;;;;;;6.47;3.92;;;8.50;99.90;;;;;;5039516;28;20137;-75
2022/04/29 06:00:01;;;;;;;12.45;4.40;;;8.50;99.90;;;;;;5041486;28;20106;-74
2022/04/29 06:02:27;;;;;;;8.15;3.72;;;8.60;99.90;;;;;;5035662;28;20056;-74
2022/04/29 06:04:52;;;;;;;9.10;3.72;;;8.60;99.90;;;;;;5064108;28;20055;-74
2022/04/29 06:07:18;;;;;;;9.68;3.65;;;8.70;99.90;;;;;;5067833;28;20361;-74
2022/04/29 06:09:44;;;;;;;7.32;3.67;;;8.80;99.90;;;;;;5057924;28;20049;-74
2022/04/29 06:12:10;;;;;;;8.27;3.83;;;8.80;99.90;;;;;;5051267;28;20128;-74
2022/04/29 06:14:36;;;;;;;8.02;3.92;;;8.90;99.90;;;;;;5036326;28;20143;-74
2022/04/29 06:17:03;;;;;;;16.13;3.88;;;8.90;99.90;;;;;;5037493;28;20132;-73
2022/04/29 06:19:28;;;;;;;10.85;3.88;;;8.90;99.90;;;;;;5035111;28;20049;-73
2022/04/29 06:21:54;;;;;;;12.98;4.18;;;9.00;99.90;;;;;;5039061;28;20053;-73
2022/04/29 06:24:20;;;;;;;9.20;3.67;;;9.00;99.90;;;;;;5032198;28;20140;-73
2022/04/29 06:26:47;;;;;;;8.63;3.40;;;9.10;99.90;;;;;;5057865;28;20460;-73
2022/04/29 06:29:12;;;;;;;7.82;3.70;;;9.10;99.90;;;;;;5049830;28;20500;-73
2022/04/29 06:31:38;;;;;;;7.32;3.63;;;9.10;99.90;;;;;;5055212;28;20135;-74
2022/04/29 06:34:04;;;;;;;7.75;3.42;;;9.20;99.90;;;;;;5045727;28;20065;-73
2022/04/29 06:36:30;;;;;;;6.65;3.50;;;9.20;99.90;;;;;;5063100;28;20053;-74
2022/04/29 06:38:56;;;;;;;7.47;3.40;;;9.30;99.90;;;;;;5063039;28;20056;-74
2022/04/29 06:41:21;;;;;;;7.22;3.75;;;9.30;99.90;;;;;;5045937;28;20051;-74
2022/04/29 06:43:48;;;;;;;6.60;3.15;;;9.30;99.90;;;;;;5030407;28;20053;-74
2022/04/29 06:46:17;;;;;;;3.50;2.10;;;9.40;99.90;;;;;;5038004;28;20041;-74
2022/04/29 06:48:43;;;;;;;7.55;3.10;;;9.40;99.90;;;;;;5063559;28;20040;-75
2022/04/29 06:51:08;;;;;;;14.05;3.28;;;9.40;99.90;;;;;;5048354;28;20032;-74
2022/04/29 06:53:40;;;;;;;10.20;3.50;;;9.40;99.90;;;;;;5068493;28;20044;-74
2022/04/29 06:56:05;;;;;;;11.20;3.40;;;9.50;99.90;;;;;;5034072;28;20345;-74
2022/04/29 06:58:31;;;;;;;7.43;3.35;;;9.50;99.90;;;;;;5031858;28;20052;-74
2022/04/29 07:00:59;;;;;;;9.10;3.03;;;9.50;99.90;;;;;;5048850;28;20045;-73
2022/04/29 07:03:25;;;;;;;6.30;3.05;;;10.00;99.90;;;;;;5033082;28;20089;-74
2022/04/29 07:05:54;;;;;;;7.55;3.00;;;9.60;99.90;;;;;;5031075;28;20531;-73
2022/04/29 07:08:21;;;;;;;11.65;3.33;;;9.70;99.90;;;;;;5038492;28;20391;-74
2022/04/29 07:10:47;;;;;;;9.15;3.13;;;9.70;99.90;;;;;;5041381;28;20115;-73
2022/04/29 07:13:13;;;;;;;12.63;3.47;;;9.80;99.90;;;;;;5047046;28;20056;-75
2022/04/29 07:15:43;;;;;;;5.18;3.20;;;9.80;99.90;;;;;;5045968;28;20496;-74
2022/04/29 07:18:10;;;;;;;12.23;3.17;;;9.90;99.90;;;;;;5050131;28;20045;-74
2022/04/29 07:20:35;;;;;;;10.65;3.10;;;10.00;99.90;;;;;;5030860;28;20041;-75
2022/04/29 07:23:01;;;;;;;4.57;3.10;;;10.00;99.90;;;;;;5028670;28;20607;-75
2022/04/29 07:25:29;;;;;;;5.50;2.88;;;10.00;99.90;;;;;;5029499;28;20077;-74
2022/04/29 07:27:55;;;;;;;9.95;3.55;;;10.10;99.90;;;;;;5034598;28;20104;-74
2022/04/29 07:30:20;;;;;;;5.57;2.72;;;10.10;99.90;;;;;;5035613;28;20985;-73
2022/04/29 07:32:46;;;;;;;8.18;3.08;;;10.20;99.90;;;;;;5035588;28;20060;-74
2022/04/29 07:43:25;;;;;;;11.15;2.67;;;10.20;99.90;;;;;;5036407;28;20049;-73
2022/04/29 07:45:53;;;;;;;9.95;2.50;;;10.20;99.90;;;;;;5027078;28;20041;-74
2022/04/29 07:48:22;;;;;;;6.15;2.45;;;10.20;99.90;;;;;;5027608;28;20052;-73
2022/04/29 07:50:48;;;;;;;4.75;2.67;;;10.20;99.90;;;;;;5036095;28;20116;-73
2022/04/29 07:53:13;;;;;;;11.10;2.90;;;10.30;99.90;;;;;;5041049;28;20163;-72
2022/04/29 07:55:39;;;;;;;8.88;2.42;;;10.30;99.90;;;;;;5044335;28;20041;-73
2022/04/29 07:58:05;;;;;;;4.78;2.50;;;10.40;99.90;;;;;;5039526;28;20049;-72
2022/04/29 08:00:31;;;;;;;10.43;2.72;;;10.50;99.90;;;;;;5040368;28;20436;-72
2022/04/29 08:03:01;;;;;;;8.02;2.58;;;10.40;99.90;;;;;;5050333;28;20106;-73
2022/04/29 08:05:28;;;;;;;6.57;2.50;;;10.50;99.90;;;;;;5037342;28;20052;-72
2022/04/29 08:07:59;;;;;;;9.20;2.80;;;10.50;99.90;;;;;;5045498;28;20094;-72
2022/04/29 08:10:32;;;;;;;4.07;1.92;;;10.50;99.90;;;;;;5055251;28;20162;-71
2022/04/29 08:12:59;;;;;;;17.45;3.17;;;10.60;99.90;;;;;;5030274;28;20065;-71
2022/04/29 08:15:29;;;;;;;4.35;2.22;;;10.60;99.90;;;;;;5053968;28;20032;-73
2022/04/29 08:17:55;;;;;;;9.15;2.67;;;10.60;99.90;;;;;;5032007;28;20071;-76
2022/04/29 08:20:21;;;;;;;6.63;2.70;;;10.60;99.90;;;;;;5032345;28;20684;-75
2022/04/29 08:22:47;;;;;;;4.35;2.10;;;10.60;99.90;;;;;;5029830;28;20045;-74
2022/04/29 08:25:15;;;;;;;5.43;1.80;;;10.70;99.90;;;;;;5046741;28;20045;-71
2022/04/29 08:27:41;;;;;;;4.78;2.10;;;10.80;99.90;;;;;;5046336;28;20075;-74
2022/04/29 08:30:07;;;;;;;10.88;2.75;;;10.70;99.90;;;;;;5049269;28;20037;-73
2022/04/29 08:32:37;;;;;;;5.97;2.30;;;10.70;99.90;;;;;;5066802;28;20045;-74
2022/04/29 08:35:03;;;;;;;9.52;2.25;;;10.70;99.90;;;;;;5048602;28;20124;-70
2022/04/29 08:37:29;;;;;;;6.22;2.03;;;10.70;99.90;;;;;;5032939;28;20512;-71
2022/04/29 08:39:55;;;;;;;6.70;2.35;;;10.70;99.90;;;;;;5048375;28;20045;-79
2022/04/29 08:42:20;;;;;;;5.10;1.98;;;10.70;99.90;;;;;;5028932;28;20053;-81
2022/04/29 08:44:46;;;;;;;5.13;2.20;;;10.70;99.90;;;;;;5031445;28;20511;-80
2022/04/29 08:47:14;;;;;;;7.10;2.60;;;10.70;99.90;;;;;;5040900;28;20121;-79
2022/04/29 08:49:40;;;;;;;10.48;2.40;;;10.70;99.90;;;;;;5056311;28;20051;-78
2022/04/29 08:52:06;;;;;;;7.82;2.25;;;10.80;99.90;;;;;;5061120;28;20101;-78
2022/04/29 09:00:04;;;;;;;7.18;1.95;;;10.80;99.90;;;;;;5074799;28;20543;-79
2022/04/29 09:02:40;;;;;;;8.02;2.25;;;10.80;99.90;;;;;;5063475;28;20183;-77
2022/04/29 09:05:09;;;;;;;6.18;1.90;;;10.80;99.90;;;;;;5053727;28;20032;-76
2022/04/29 09:08:01;;;;;;;6.53;2.15;;;10.90;99.90;;;;;;5041862;28;20079;-78
2022/04/29 09:10:29;;;;;;;4.03;2.17;;;10.90;99.90;;;;;;5041440;28;20123;-73
2022/04/29 09:13:09;;;;;;;6.78;2.20;;;10.90;99.90;;;;;;5047160;28;20125;-73
2022/04/29 09:15:36;;;;;;;8.43;2.40;;;11.00;99.90;;;;;;5053329;28;20074;-74
2022/04/29 09:18:03;;;;;;;6.10;2.30;;;11.00;99.90;;;;;;5051760;28;20408;-74
2022/04/29 09:20:29;;;;;;;9.68;1.98;;;11.00;99.90;;;;;;5052102;28;20092;-73
2022/04/29 09:22:55;;;;;;;7.25;2.28;;;11.10;99.90;;;;;;5052321;28;20392;-75
2022/04/29 09:25:21;;;;;;;9.32;2.38;;;11.10;99.90;;;;;;5038652;28;20053;-75
2022/04/29 09:27:59;;;;;;;8.10;3.00;;;11.20;99.90;;;;;;5072249;28;20059;-74
2022/04/29 09:30:38;;;;;;;5.60;2.58;;;11.20;99.90;;;;;;5091620;28;20036;-76
2022/04/29 09:33:24;;;;;;;6.60;2.30;;;11.10;99.90;;;;;;5084028;28;20471;-74
2022/04/29 09:35:51;;;;;;;5.55;2.78;;;11.10;99.90;;;;;;5064675;28;20120;-74
2022/04/29 09:41:02;;;;;;;6.80;2.10;;;11.10;99.90;;;;;;5037369;28;20045;-83
2022/04/29 09:43:33;;;;;;;7.38;2.50;;;11.10;99.90;;;;;;5046702;28;20045;-75
2022/04/29 09:46:09;;;;;;;;;;;11.10;99.90;;;;;;5051587;28;20146;-75
2022/04/29 09:48:50;;;;;;;4.32;2.20;;;11.00;99.90;;;;;;5033306;28;20413;-75
2022/04/29 09:51:39;;;;;;;7.40;2.13;;;11.00;99.90;;;;;;5045035;28;20492;-74
2022/04/29 09:54:16;;;;;;;9.02;2.10;;;11.00;99.90;;;;;;5071660;28;20045;-73
2022/04/29 09:56:43;;;;;;;6.57;2.00;;;11.00;99.90;;;;;;5035339;28;20037;-73
2022/04/29 09:59:09;;;;;;;5.90;3.13;;;11.00;99.90;;;;;;5055551;28;20516;-74
2022/04/29 10:01:35;;;;;;;5.70;2.72;;;11.00;99.90;;;;;;5062261;28;20049;-74
2022/04/29 10:04:01;;;;;;;6.28;2.72;;;11.00;99.90;;;;;;5051116;28;20049;-74
2022/04/29 10:06:29;;;;;;;8.38;2.88;;;11.00;99.90;;;;;;5032953;28;20045;-75
2022/04/29 10:08:58;;;;;;;6.82;2.90;;;11.00;99.90;;;;;;5032409;28;20039;-75
2022/04/29 10:11:26;;;;;;;7.82;3.00;;;11.00;99.90;;;;;;5061938;28;20037;-79
2022/04/29 10:13:53;;;;;;;5.22;2.90;;;11.00;99.90;;;;;;5049372;28;20059;-76
2022/04/29 10:16:22;;;;;;;6.07;2.78;;;11.00;99.90;;;;;;5070332;28;20131;-75
2022/04/29 10:21:46;;;;;;;8.30;2.83;;;10.90;99.90;;;;;;5050383;28;20056;-78
2022/04/29 10:24:12;;;;;;;10.60;3.42;;;10.90;99.90;;;;;;5032593;28;20052;-87
2022/04/29 10:26:38;;;;;;;6.88;2.65;;;10.90;99.90;;;;;;5050110;28;20461;-74
2022/04/29 10:29:06;;;;;;;6.10;2.47;;;10.90;99.90;;;;;;5049846;28;20041;-72
2022/04/29 10:31:32;;;;;;;7.65;2.92;;;10.90;99.90;;;;;;5032301;28;20063;-73
2022/04/29 10:34:27;;;;;;;10.38;2.92;;;10.90;99.90;;;;;;5031625;28;20132;-74
2022/04/29 10:36:53;;;;;;;6.30;2.97;;;10.80;99.50;;;;;;5050301;28;20084;-75
2022/04/29 10:39:21;;;;;;;12.93;3.17;;;10.80;99.90;;;;;;5059475;28;20126;-75
2022/04/29 10:42:19;;;;;;;11.05;3.40;;;10.80;99.90;;;;;;5050282;28;20053;-75
2022/04/29 10:45:02;;;;;;;11.43;3.17;;;10.80;99.60;;;;;;5009178;28;20060;-75
2022/04/29 10:47:38;;;;;;;7.50;2.90;;;10.80;99.60;;;;;;5043087;28;20051;-75
2022/04/29 10:50:36;;;;;;;5.70;2.97;;;10.80;99.60;;;;;;5069852;28;20041;-75
2022/04/29 10:53:03;;;;;;;10.82;3.10;;;10.80;99.10;;;;;;5053810;28;20124;-74
2022/04/29 10:55:29;;;;;;;6.22;2.72;;;10.80;99.20;;;;;;5049474;28;20053;-74
2022/04/29 10:58:04;;;;;;;5.47;2.83;;;10.80;99.10;;;;;;5030411;28;20053;-74
2022/04/29 11:00:30;;;;;;;7.47;2.65;;;10.80;99.20;;;;;;5067505;28;20250;-75
2022/04/29 11:03:34;;;;;;;5.95;2.65;;;10.80;98.80;;;;;;5050291;28;20067;-80
2022/04/29 11:06:07;;;;;;;5.00;2.10;;;10.80;98.10;;;;;;5044871;28;20049;-75
2022/04/29 11:08:33;;;;;;;7.13;2.40;;;10.80;98.60;;;;;;5053212;28;20036;-75
2022/04/29 11:11:02;;;;;;;5.13;2.35;;;11.00;98.60;;;;;;5045994;28;20052;-75
2022/04/29 11:13:30;;;;;;;3.90;1.88;;;10.90;98.50;;;;;;5048411;28;20037;-75
2022/04/29 11:16:08;;;;;;;4.95;1.95;;;11.00;98.60;;;;;;5049104;28;20433;-75
2022/04/29 11:18:34;;;;;;;8.98;2.20;;;11.00;98.30;;;;;;5031098;28;20091;-75
2022/04/29 11:24:40;;;;;;;6.80;2.58;;;11.00;98.10;;;;;;5046469;28;20045;-74
2022/04/29 11:26:48;;;;;;;5.25;1.75;;;11.20;98.20;;;;;;5049802;28;20193;-82
2022/04/29 11:29:14;;;;;;;7.57;2.30;;;11.30;97.90;;;;;;5039766;28;20114;-81
2022/04/29 11:31:40;;;;;;;6.53;2.50;;;11.30;98.10;;;;;;5081432;28;20087;-81
2022/04/29 11:34:11;;;;;;;5.53;2.80;;;11.40;98.00;;;;;;5075791;28;20041;-80
2022/04/29 11:36:37;;;;;;;7.18;2.67;;;11.40;97.60;;;;;;5058419;28;20069;-80
2022/04/29 11:39:19;;;;;;;6.20;2.40;;;11.50;97.70;;;;;;5031571;28;20060;-82
2022/04/29 11:42:16;;;;;;;4.28;2.45;;;11.50;97.40;;;;;;5034301;28;20045;-76
2022/04/29 11:44:43;;;;;;;7.70;2.40;;;11.50;97.60;;;;;;5049166;28;20053;-76
2022/04/29 11:47:09;;;;;;;7.50;2.00;;;11.50;97.60;;;;;;5048958;28;20041;-75
2022/04/29 11:49:35;;;;;;;4.45;1.77;;;11.50;97.60;;;;;;5030768;28;20126;-75
2022/04/29 11:52:32;;;;;;;7.72;2.10;;;11.50;97.40;;;;;;5048124;28;20554;-75
2022/04/29 11:55:00;;;;;;;6.47;2.00;;;11.50;97.20;;;;;;5030996;28;20503;-75
2022/04/29 11:57:28;;;;;;;3.05;1.60;;;11.40;97.10;;;;;;5047236;28;20036;-75
2022/04/29 11:59:54;;;;;;;9.05;1.98;;;11.40;97.10;;;;;;5032070;28;20099;-75
2022/04/29 12:02:21;;;;;;;4.93;1.85;;;11.40;97.30;;;;;;5030662;28;20053;-76
2022/04/29 12:05:02;;;;;;;6.75;2.38;;;11.50;97.20;;;;;;5030082;28;20075;-75
2022/04/29 12:07:39;;;;;;;4.70;2.13;;;11.60;97.10;;;;;;5049138;28;20156;-75
2022/04/29 12:10:26;;;;;;;8.18;2.42;;;11.60;97.30;;;;;;5045468;28;20098;-77
2022/04/29 12:13:03;;;;;;;6.95;2.20;;;11.80;97.50;;;;;;5049317;28;20041;-75
2022/04/29 12:15:31;;;;;;;4.25;2.28;;;11.90;97.40;;;;;;5050182;28;20044;-76
2022/04/29 12:18:02;;;;;;;6.93;2.30;;;12.00;97.60;;;;;;5031162;28;20060;-76
2022/04/29 12:20:29;;;;;;;9.07;2.22;;;12.10;97.30;;;;;;5030888;28;20135;-76
2022/04/29 12:22:55;;;;;;;5.82;2.20;;;12.20;97.10;;;;;;5049058;28;20036;-76
2022/04/29 12:25:25;;;;;;;6.57;2.35;;;12.30;97.00;;;;;;5049207;28;20079;-75
2022/04/29 12:28:09;;;;;;;6.35;2.08;;;12.40;96.60;;;;;;5045618;28;20106;-76
2022/04/29 12:36:16;;;;;;;4.43;2.08;;;12.30;95.80;;;;;;5053032;28;20102;-76
2022/04/29 12:38:44;;;;;;;4.50;2.25;;;12.20;95.90;;;;;;5069511;28;20383;-76
2022/04/29 12:41:22;;;;;;;6.30;2.08;;;12.10;95.70;;;;;;5087357;28;20048;-76
2022/04/29 12:43:47;;;;;;;7.45;2.53;;;12.10;95.40;;;;;;5049256;28;20067;-76
2022/04/29 12:46:18;;;;;;;14.02;2.25;;;12.10;95.40;;;;;;5068486;28;20473;-76
2022/04/29 12:48:53;;;;;;;4.47;1.83;;;12.00;95.60;;;;;;5050594;28;20456;-76
2022/04/29 12:51:36;;;;;;;4.97;2.40;;;12.00;95.30;;;;;;5055155;28;20051;-75
2022/04/29 12:54:04;;;;;;;6.80;2.38;;;12.00;95.30;;;;;;5066739;28;20040;-75
2022/04/29 12:56:35;;;;;;;3.90;2.10;;;11.90;95.30;;;;;;5050439;28;20048;-76
2022/04/29 12:59:04;;;;;;;7.68;2.05;;;11.90;95.30;;;;;;5056740;28;20397;-75
2022/04/29 13:01:40;;;;;;;5.60;2.17;;;11.90;95.30;;;;;;5071536;28;20113;-76
2022/04/29 13:04:06;;;;;;;5.15;2.00;;;11.90;95.20;;;;;;5067955;28;20123;-75
2022/04/29 13:06:34;;;;;;;7.40;2.30;;;11.90;95.30;;;;;;5058854;28;20238;-75
2022/04/29 13:09:02;;;;;;;8.35;2.35;;;11.90;95.20;;;;;;5034618;28;20136;-75
2022/04/29 13:11:29;;;;;;;4.55;1.92;;;11.90;95.20;;;;;;5035959;28;20370;-74
2022/04/29 13:13:55;;;;;;;3.08;1.85;;;12.00;95.30;;;;;;5055317;28;20081;-75
2022/04/29 13:16:22;;;;;;;7.65;2.45;;;12.10;95.30;;;;;;5055246;28;20109;-75
2022/04/29 13:18:48;;;;;;;5.82;2.08;;;12.00;95.10;;;;;;5052990;28;20179;-76
2022/04/29 13:21:15;;;;;;;8.40;2.38;;;12.10;95.40;;;;;;5036081;28;20048;-75
2022/04/29 13:23:43;;;;;;;5.30;2.15;;;12.10;95.50;;;;;;5055578;28;20048;-76
2022/04/29 13:26:09;;;;;;;6.57;2.22;;;12.20;95.50;;;;;;5061793;28;20048;-74
2022/04/29 13:28:37;;;;;;;5.93;2.97;;;12.30;95.30;;;;;;5059872;28;20519;-75
2022/04/29 13:31:04;;;;;;;7.07;2.10;;;12.30;95.00;;;;;;5035122;28;20056;-75
2022/04/29 13:33:30;;;;;;;7.00;2.75;;;12.30;94.90;;;;;;5037608;28;20041;-75